createdAt,value
2017-07-06T00:00:07.387Z,63.21
2017-07-06T00:00:33.518Z,63.21
2017-07-06T00:00:59.668Z,63.31
2017-07-06T00:01:25.809Z,63.31
2017-07-06T00:01:51.948Z,63.21
2017-07-06T00:02:18.086Z,63.4
2017-07-06T00:02:44.221Z,63.31
2017-07-06T00:03:10.370Z,63.89
2017-07-06T00:03:36.506Z,63.5
2017-07-06T00:04:02.682Z,63.89
2017-07-06T00:04:28.828Z,63.6
2017-07-06T00:04:54.970Z,63.6
2017-07-06T00:05:21.099Z,63.21
2017-07-06T00:05:47.249Z,63.7
2017-07-06T00:06:13.394Z,64.08
2017-07-06T00:06:39.522Z,64.63
2017-07-06T00:07:05.661Z,64.34
2017-07-06T00:07:31.808Z,64.34
2017-07-06T00:07:57.941Z,64.34
2017-07-06T00:08:24.084Z,64.53
2017-07-06T00:08:50.223Z,64.43
2017-07-06T00:09:16.355Z,64.63
2017-07-06T00:09:42.501Z,64.24
2017-07-06T00:10:08.631Z,64.24
2017-07-06T00:10:34.773Z,64.34
2017-07-06T00:11:00.918Z,64.53
2017-07-06T00:11:27.048Z,64.24
2017-07-06T00:11:53.185Z,64.43
2017-07-06T00:12:19.333Z,64.43
2017-07-06T00:12:45.467Z,64.34
2017-07-06T00:13:11.603Z,63.95
2017-07-06T00:13:37.746Z,64.53
2017-07-06T00:14:03.890Z,64.53
2017-07-06T00:14:30.046Z,64.24
2017-07-06T00:14:56.220Z,64.34
2017-07-06T00:15:22.356Z,64.43
2017-07-06T00:15:48.505Z,64.43
2017-07-06T00:16:14.640Z,64.53
2017-07-06T00:16:40.782Z,64.24
2017-07-06T00:17:06.928Z,64.82
2017-07-06T00:17:33.063Z,64.34
2017-07-06T00:17:59.216Z,64.43
2017-07-06T00:18:25.367Z,64.34
2017-07-06T00:18:51.509Z,64.34
2017-07-06T00:19:17.958Z,64.28
2017-07-06T00:19:44.039Z,64.05
2017-07-06T00:20:10.161Z,64.15
2017-07-06T00:20:36.312Z,64.43
2017-07-06T00:21:02.449Z,64.24
2017-07-06T00:21:28.579Z,63.95
2017-07-06T00:21:54.753Z,64.34
2017-07-06T00:22:20.894Z,64.43
2017-07-06T00:22:47.023Z,64.15
2017-07-06T00:23:13.165Z,64.82
2017-07-06T00:23:39.314Z,64.92
2017-07-06T00:24:05.440Z,64.89
2017-07-06T00:24:31.586Z,64.98
2017-07-06T00:24:57.732Z,65.66
2017-07-06T00:25:23.862Z,65.56
2017-07-06T00:25:50.001Z,65.17
2017-07-06T00:26:16.146Z,65.08
2017-07-06T00:26:42.282Z,65.56
2017-07-06T00:27:08.412Z,65.56
2017-07-06T00:27:34.573Z,65.37
2017-07-06T00:28:00.724Z,65.66
2017-07-06T00:28:26.853Z,65.56
2017-07-06T00:28:53.000Z,65.66
2017-07-06T00:29:19.142Z,65.37
2017-07-06T00:29:45.271Z,65.56
2017-07-06T00:30:11.442Z,65.66
2017-07-06T00:30:37.576Z,65.66
2017-07-06T00:31:03.723Z,65.75
2017-07-06T00:31:29.862Z,65.37
2017-07-06T00:31:55.990Z,65.66
2017-07-06T00:32:22.137Z,65.37
2017-07-06T00:32:48.275Z,65.37
2017-07-06T00:33:14.408Z,65.75
2017-07-06T00:33:40.549Z,65.37
2017-07-06T00:34:06.698Z,65.27
2017-07-06T00:34:32.823Z,65.27
2017-07-06T00:34:58.969Z,65.17
2017-07-06T00:35:25.119Z,65.37
2017-07-06T00:35:51.246Z,65.47
2017-07-06T00:36:17.386Z,65.08
2017-07-06T00:36:43.519Z,65.3
2017-07-06T00:37:09.667Z,65.27
2017-07-06T00:37:35.838Z,65.37
2017-07-06T00:38:01.970Z,65.17
2017-07-06T00:38:28.111Z,65.37
2017-07-06T00:38:54.258Z,65.37
2017-07-06T00:39:20.387Z,65.37
2017-07-06T00:39:46.528Z,65.47
2017-07-06T00:40:12.673Z,65.37
2017-07-06T00:40:38.808Z,65.47
2017-07-06T00:41:04.941Z,65.5
2017-07-06T00:41:31.091Z,65.2
2017-07-06T00:41:57.227Z,65.56
2017-07-06T00:42:23.370Z,65.27
2017-07-06T00:42:49.506Z,65.5
2017-07-06T00:43:15.643Z,65.37
2017-07-06T00:43:41.790Z,65.37
2017-07-06T00:44:07.924Z,65.66
2017-07-06T00:44:34.107Z,66.14
2017-07-06T00:45:00.254Z,66.52
2017-07-06T00:45:26.393Z,66.52
2017-07-06T00:45:52.524Z,67.07
2017-07-06T00:46:18.679Z,66.59
2017-07-06T00:46:44.815Z,66.97
2017-07-06T00:47:10.954Z,67.46
2017-07-06T00:47:37.090Z,67.26
2017-07-06T00:48:03.219Z,67.46
2017-07-06T00:48:29.374Z,67.46
2017-07-06T00:48:55.510Z,67.46
2017-07-06T00:49:21.640Z,67.26
2017-07-06T00:49:47.790Z,67.16
2017-07-06T00:50:13.932Z,67.07
2017-07-06T00:50:40.061Z,66.82
2017-07-06T00:51:06.203Z,67.1
2017-07-06T00:51:32.352Z,66.62
2017-07-06T00:51:58.477Z,66.72
2017-07-06T00:52:24.619Z,67
2017-07-06T00:52:50.751Z,66.72
2017-07-06T00:53:16.897Z,66.91
2017-07-06T00:53:43.036Z,67.1
2017-07-06T00:54:09.168Z,67
2017-07-06T00:54:35.311Z,66.91
2017-07-06T00:55:01.461Z,67
2017-07-06T00:55:27.587Z,66.82
2017-07-06T00:55:53.730Z,66.72
2017-07-06T00:56:19.878Z,66.52
2017-07-06T00:56:46.031Z,66.72
2017-07-06T00:57:12.166Z,67
2017-07-06T00:57:38.319Z,66.82
2017-07-06T00:58:04.511Z,67.2
2017-07-06T00:58:30.598Z,67
2017-07-06T00:58:56.726Z,67.4
2017-07-06T00:59:22.863Z,67.4
2017-07-06T00:59:49.009Z,66.91
2017-07-06T01:00:15.144Z,66.91
2017-07-06T01:00:41.282Z,67.1
2017-07-06T01:01:07.428Z,67.3
2017-07-06T01:01:33.561Z,67
2017-07-06T01:01:59.692Z,66.62
2017-07-06T01:02:25.845Z,67.1
2017-07-06T01:02:51.982Z,66.91
2017-07-06T01:03:18.123Z,66.91
2017-07-06T01:03:44.262Z,67.1
2017-07-06T01:04:10.396Z,67
2017-07-06T01:04:36.569Z,66.82
2017-07-06T01:05:02.702Z,66.82
2017-07-06T01:05:28.836Z,66.62
2017-07-06T01:05:54.987Z,66.62
2017-07-06T01:06:21.125Z,66.62
2017-07-06T01:06:47.254Z,66.91
2017-07-06T01:07:13.404Z,67.2
2017-07-06T01:07:39.542Z,67.3
2017-07-06T01:08:05.697Z,67.3
2017-07-06T01:08:31.840Z,67.4
2017-07-06T01:08:58.012Z,67.49
2017-07-06T01:09:24.118Z,67.49
2017-07-06T01:09:50.256Z,67.4
2017-07-06T01:10:17.065Z,67.49
2017-07-06T01:10:44.920Z,67.49
2017-07-06T01:11:11.539Z,67.3
2017-07-06T01:11:38.799Z,67.2
2017-07-06T01:12:05.774Z,67.2
2017-07-06T01:12:34.037Z,67.2
2017-07-06T01:13:01.954Z,67.49
2017-07-06T01:13:29.509Z,67.4
2017-07-06T01:13:55.644Z,67.2
2017-07-06T01:14:21.785Z,67.3
2017-07-06T01:14:47.921Z,67.4
2017-07-06T01:15:14.060Z,67.3
2017-07-06T01:15:40.192Z,67.4
2017-07-06T01:16:06.350Z,67.4
2017-07-06T01:16:32.496Z,67.49
2017-07-06T01:16:58.634Z,67.4
2017-07-06T01:17:24.767Z,67.4
2017-07-06T01:17:50.913Z,67.2
2017-07-06T01:18:17.056Z,67.4
2017-07-06T01:18:43.187Z,67.3
2017-07-06T01:19:09.332Z,67.4
2017-07-06T01:19:35.499Z,67.4
2017-07-06T01:20:01.627Z,67.1
2017-07-06T01:20:27.765Z,67.1
2017-07-06T01:20:53.923Z,67.1
2017-07-06T01:21:20.070Z,67.3
2017-07-06T01:21:46.213Z,67.68
2017-07-06T01:22:12.341Z,67.97
2017-07-06T01:22:38.484Z,67.88
2017-07-06T01:23:04.624Z,67.97
2017-07-06T01:23:30.756Z,67.74
2017-07-06T01:23:56.897Z,67.78
2017-07-06T01:24:23.042Z,67.97
2017-07-06T01:24:49.174Z,68.26
2017-07-06T01:25:15.313Z,68.26
2017-07-06T01:25:41.487Z,68.04
2017-07-06T01:26:07.625Z,67.97
2017-07-06T01:26:33.794Z,67.94
2017-07-06T01:26:59.915Z,67.94
2017-07-06T01:27:26.057Z,68.13
2017-07-06T01:27:52.203Z,68.26
2017-07-06T01:28:18.341Z,67.84
2017-07-06T01:28:44.479Z,67.97
2017-07-06T01:29:10.627Z,67.97
2017-07-06T01:29:36.760Z,67.88
2017-07-06T01:30:02.892Z,68.04
2017-07-06T01:30:29.038Z,67.94
2017-07-06T01:30:55.175Z,68.35
2017-07-06T01:31:21.310Z,68.35
2017-07-06T01:31:47.457Z,68.07
2017-07-06T01:32:13.591Z,67.88
2017-07-06T01:32:39.737Z,68.07
2017-07-06T01:33:05.898Z,67.78
2017-07-06T01:33:32.025Z,68.04
2017-07-06T01:33:58.176Z,68.04
2017-07-06T01:34:24.312Z,67.84
2017-07-06T01:34:50.443Z,67.78
2017-07-06T01:35:16.589Z,67.84
2017-07-06T01:35:42.730Z,68.04
2017-07-06T01:36:08.860Z,68.16
2017-07-06T01:36:35.005Z,67.78
2017-07-06T01:37:01.147Z,67.84
2017-07-06T01:37:27.278Z,68.04
2017-07-06T01:37:53.412Z,67.74
2017-07-06T01:38:19.541Z,67.94
2017-07-06T01:38:45.689Z,67.94
2017-07-06T01:39:11.853Z,67.94
2017-07-06T01:39:37.981Z,68.26
2017-07-06T01:40:04.122Z,68.13
2017-07-06T01:40:30.295Z,67.84
2017-07-06T01:40:56.422Z,67.74
2017-07-06T01:41:22.564Z,67.94
2017-07-06T01:41:48.708Z,68.23
2017-07-06T01:42:14.840Z,68.13
2017-07-06T01:42:40.977Z,68.04
2017-07-06T01:43:07.116Z,68.04
2017-07-06T01:43:33.256Z,67.94
2017-07-06T01:43:59.403Z,68.42
2017-07-06T01:44:25.531Z,68.61
2017-07-06T01:44:51.675Z,68.52
2017-07-06T01:45:17.875Z,68.04
2017-07-06T01:45:44.029Z,68.13
2017-07-06T01:46:10.163Z,67.84
2017-07-06T01:46:36.312Z,68.42
2017-07-06T01:47:02.454Z,68.42
2017-07-06T01:47:28.576Z,68.42
2017-07-06T01:47:54.727Z,68.61
2017-07-06T01:48:20.863Z,68.42
2017-07-06T01:48:47.007Z,68.32
2017-07-06T01:49:13.138Z,68.23
2017-07-06T01:49:39.278Z,68.42
2017-07-06T01:50:05.422Z,68.52
2017-07-06T01:50:31.559Z,68.71
2017-07-06T01:50:57.689Z,68.52
2017-07-06T01:51:23.841Z,68.42
2017-07-06T01:51:49.979Z,68.52
2017-07-06T01:52:16.110Z,68.8
2017-07-06T01:52:42.257Z,68.8
2017-07-06T01:53:08.399Z,69.19
2017-07-06T01:53:34.527Z,68.9
2017-07-06T01:54:00.669Z,68.99
2017-07-06T01:54:26.818Z,68.71
2017-07-06T01:54:52.945Z,68.61
2017-07-06T01:55:19.084Z,68.8
2017-07-06T01:55:45.232Z,68.99
2017-07-06T01:56:11.362Z,68.8
2017-07-06T01:56:37.502Z,68.99
2017-07-06T01:57:03.648Z,68.61
2017-07-06T01:57:29.782Z,68.8
2017-07-06T01:57:55.911Z,68.71
2017-07-06T01:58:22.063Z,68.8
2017-07-06T01:58:48.202Z,68.99
2017-07-06T01:59:14.331Z,68.71
2017-07-06T01:59:40.478Z,68.32
2017-07-06T02:00:06.612Z,68.99
2017-07-06T02:00:32.757Z,69.48
2017-07-06T02:00:58.887Z,69.38
2017-07-06T02:01:25.020Z,69.48
2017-07-06T02:01:51.170Z,69.57
2017-07-06T02:02:17.310Z,69.57
2017-07-06T02:02:43.458Z,69.38
2017-07-06T02:03:09.606Z,69.48
2017-07-06T02:03:35.747Z,69.57
2017-07-06T02:04:01.878Z,69.19
2017-07-06T02:04:28.017Z,69.38
2017-07-06T02:04:54.163Z,69.38
2017-07-06T02:05:20.294Z,69.48
2017-07-06T02:05:46.433Z,69.38
2017-07-06T02:06:12.564Z,69.67
2017-07-06T02:06:38.709Z,69.29
2017-07-06T02:07:04.848Z,69.48
2017-07-06T02:07:30.980Z,69.38
2017-07-06T02:07:57.127Z,69.38
2017-07-06T02:08:23.272Z,69.73
2017-07-06T02:08:49.400Z,69.19
2017-07-06T02:09:15.539Z,69.48
2017-07-06T02:09:41.691Z,69.57
2017-07-06T02:10:07.820Z,69.77
2017-07-06T02:10:33.957Z,69.38
2017-07-06T02:11:00.091Z,69.38
2017-07-06T02:11:26.235Z,69.48
2017-07-06T02:11:52.380Z,69.77
2017-07-06T02:12:18.510Z,69.48
2017-07-06T02:12:44.650Z,69.77
2017-07-06T02:13:10.793Z,69.48
2017-07-06T02:13:36.924Z,69.48
2017-07-06T02:14:03.063Z,68.9
2017-07-06T02:14:29.210Z,69.09
2017-07-06T02:14:55.343Z,69.38
2017-07-06T02:15:21.473Z,69.38
2017-07-06T02:15:47.622Z,69.29
2017-07-06T02:16:13.760Z,69.35
2017-07-06T02:16:39.907Z,69.29
2017-07-06T02:17:06.031Z,69.19
2017-07-06T02:17:32.170Z,69.48
2017-07-06T02:17:58.314Z,69.48
2017-07-06T02:18:24.448Z,69.73
2017-07-06T02:18:50.577Z,69.45
2017-07-06T02:19:16.729Z,69.35
2017-07-06T02:19:42.865Z,69.25
2017-07-06T02:20:08.995Z,69.06
2017-07-06T02:20:35.146Z,69.54
2017-07-06T02:21:01.292Z,69.64
2017-07-06T02:21:27.420Z,69.83
2017-07-06T02:21:53.565Z,69.64
2017-07-06T02:22:19.696Z,69.64
2017-07-06T02:22:45.843Z,69.54
2017-07-06T02:23:11.980Z,69.64
2017-07-06T02:23:38.113Z,69.93
2017-07-06T02:24:04.262Z,70.02
2017-07-06T02:24:30.400Z,70.21
2017-07-06T02:24:56.533Z,70.02
2017-07-06T02:25:22.673Z,69.73
2017-07-06T02:25:48.825Z,70.02
2017-07-06T02:26:14.949Z,69.93
2017-07-06T02:26:41.093Z,69.83
2017-07-06T02:27:07.243Z,69.93
2017-07-06T02:27:33.370Z,69.54
2017-07-06T02:27:59.512Z,69.54
2017-07-06T02:28:25.664Z,69.64
2017-07-06T02:28:51.809Z,69.93
2017-07-06T02:29:17.953Z,69.54
2017-07-06T02:29:44.084Z,69.83
2017-07-06T02:30:10.222Z,69.83
2017-07-06T02:30:36.369Z,69.64
2017-07-06T02:31:02.499Z,69.64
2017-07-06T02:31:28.636Z,70.02
2017-07-06T02:31:54.783Z,70.21
2017-07-06T02:32:20.918Z,69.83
2017-07-06T02:32:47.048Z,69.83
2017-07-06T02:33:13.192Z,69.93
2017-07-06T02:33:39.334Z,69.64
2017-07-06T02:34:05.481Z,69.93
2017-07-06T02:34:31.616Z,69.93
2017-07-06T02:34:57.752Z,70.12
2017-07-06T02:35:23.900Z,70.12
2017-07-06T02:35:50.032Z,70.89
2017-07-06T02:36:16.163Z,70.21
2017-07-06T02:36:42.312Z,70.31
2017-07-06T02:37:08.447Z,70.12
2017-07-06T02:37:34.578Z,70.12
2017-07-06T02:38:00.727Z,70.31
2017-07-06T02:38:26.863Z,70.12
2017-07-06T02:38:53.019Z,70.31
2017-07-06T02:39:19.163Z,69.93
2017-07-06T02:39:45.308Z,70.41
2017-07-06T02:40:11.439Z,69.93
2017-07-06T02:40:37.579Z,70.5
2017-07-06T02:41:03.724Z,70.21
2017-07-06T02:41:29.860Z,70.5
2017-07-06T02:41:55.997Z,70.6
2017-07-06T02:42:22.142Z,70.79
2017-07-06T02:42:48.273Z,70.7
2017-07-06T02:43:14.405Z,70.7
2017-07-06T02:43:40.553Z,70.31
2017-07-06T02:44:06.689Z,70.6
2017-07-06T02:44:32.831Z,70.21
2017-07-06T02:44:58.968Z,70.31
2017-07-06T02:45:25.096Z,70.21
2017-07-06T02:45:51.243Z,70.31
2017-07-06T02:46:17.374Z,70.41
2017-07-06T02:46:43.505Z,70.31
2017-07-06T02:47:09.650Z,70.12
2017-07-06T02:47:35.789Z,70.31
2017-07-06T02:48:01.920Z,70.31
2017-07-06T02:48:28.065Z,70.12
2017-07-06T02:48:54.205Z,70.21
2017-07-06T02:49:20.337Z,70.12
2017-07-06T02:49:46.479Z,70.21
2017-07-06T02:50:12.611Z,70.21
2017-07-06T02:50:38.782Z,70.79
2017-07-06T02:51:04.917Z,70.5
2017-07-06T02:51:31.048Z,70.41
2017-07-06T02:51:57.195Z,70.12
2017-07-06T02:52:23.334Z,70.21
2017-07-06T02:52:49.482Z,70.41
2017-07-06T02:53:15.627Z,70.41
2017-07-06T02:53:41.772Z,70.21
2017-07-06T02:54:07.902Z,70.5
2017-07-06T02:54:34.041Z,70.21
2017-07-06T02:55:00.189Z,70.21
2017-07-06T02:55:26.321Z,70.41
2017-07-06T02:55:52.465Z,70.5
2017-07-06T02:56:18.595Z,70.89
2017-07-06T02:56:44.735Z,70.98
2017-07-06T02:57:10.886Z,70.41
2017-07-06T02:57:37.011Z,70.79
2017-07-06T02:58:03.152Z,71.28
2017-07-06T02:58:29.298Z,71.08
2017-07-06T02:58:55.429Z,71.08
2017-07-06T02:59:21.563Z,71.08
2017-07-06T02:59:47.711Z,71.28
2017-07-06T03:00:13.842Z,71.28
2017-07-06T03:00:39.974Z,70.98
2017-07-06T03:01:06.120Z,70.79
2017-07-06T03:01:32.260Z,70.98
2017-07-06T03:01:58.404Z,70.98
2017-07-06T03:02:24.537Z,71.04
2017-07-06T03:02:52.230Z,71.04
2017-07-06T03:03:18.643Z,70.95
2017-07-06T03:03:44.774Z,71.18
2017-07-06T03:04:10.903Z,71.04
2017-07-06T03:04:37.052Z,71.24
2017-07-06T03:05:03.193Z,71.24
2017-07-06T03:05:29.320Z,71.04
2017-07-06T03:05:55.470Z,70.86
2017-07-06T03:06:21.606Z,71.43
2017-07-06T03:06:47.746Z,71.04
2017-07-06T03:07:13.877Z,71.34
2017-07-06T03:07:40.010Z,71.37
2017-07-06T03:08:06.159Z,71.34
2017-07-06T03:08:32.297Z,71.14
2017-07-06T03:08:58.431Z,71.24
2017-07-06T03:09:24.577Z,71.43
2017-07-06T03:09:50.717Z,71.81
2017-07-06T03:10:16.848Z,72.11
2017-07-06T03:10:42.994Z,71.62
2017-07-06T03:11:09.139Z,71.53
2017-07-06T03:11:35.269Z,71.53
2017-07-06T03:12:01.404Z,72.2
2017-07-06T03:12:27.539Z,71.91
2017-07-06T03:12:53.682Z,72.01
2017-07-06T03:13:19.824Z,72.01
2017-07-06T03:13:45.956Z,72.11
2017-07-06T03:14:12.101Z,72.11
2017-07-06T03:14:38.246Z,71.53
2017-07-06T03:15:04.375Z,71.62
2017-07-06T03:15:30.514Z,71.72
2017-07-06T03:15:56.657Z,71.81
2017-07-06T03:16:22.790Z,72.59
2017-07-06T03:16:48.929Z,72.3
2017-07-06T03:17:15.073Z,72.11
2017-07-06T03:17:41.208Z,72.3
2017-07-06T03:18:07.359Z,72.68
2017-07-06T03:18:33.484Z,72.59
2017-07-06T03:18:59.625Z,72.59
2017-07-06T03:19:25.771Z,72.68
2017-07-06T03:19:51.903Z,72.78
2017-07-06T03:20:18.038Z,72.39
2017-07-06T03:20:44.183Z,72.49
2017-07-06T03:21:10.317Z,72.68
2017-07-06T03:21:36.444Z,72.59
2017-07-06T03:22:02.590Z,72.59
2017-07-06T03:22:28.729Z,72.59
2017-07-06T03:22:54.860Z,72.39
2017-07-06T03:23:21.000Z,72.39
2017-07-06T03:23:47.141Z,72.49
2017-07-06T03:24:13.272Z,73.07
2017-07-06T03:24:39.413Z,73.07
2017-07-06T03:25:05.562Z,73.07
2017-07-06T03:25:31.690Z,73.07
2017-07-06T03:25:57.833Z,72.97
2017-07-06T03:26:23.977Z,72.78
2017-07-06T03:26:50.109Z,72.11
2017-07-06T03:27:16.241Z,72.3
2017-07-06T03:27:42.388Z,72.97
2017-07-06T03:28:08.523Z,72.3
2017-07-06T03:28:34.657Z,72.3
2017-07-06T03:29:00.799Z,72.78
2017-07-06T03:29:26.942Z,73.07
2017-07-06T03:29:53.085Z,72.88
2017-07-06T03:30:19.212Z,72.88
2017-07-06T03:30:45.345Z,72.88
2017-07-06T03:31:11.492Z,72.59
2017-07-06T03:31:37.631Z,72.68
2017-07-06T03:32:03.758Z,72.11
2017-07-06T03:32:29.913Z,72.97
2017-07-06T03:32:56.053Z,72.97
2017-07-06T03:33:22.187Z,72.49
2017-07-06T03:33:48.331Z,72.84
2017-07-06T03:34:14.474Z,72.94
2017-07-06T03:34:40.612Z,71.97
2017-07-06T03:35:06.746Z,71.88
2017-07-06T03:35:32.874Z,72.07
2017-07-06T03:35:59.026Z,72.26
2017-07-06T03:36:25.163Z,72.01
2017-07-06T03:36:51.292Z,72.01
2017-07-06T03:37:17.441Z,72.07
2017-07-06T03:37:43.583Z,72.78
2017-07-06T03:38:09.710Z,72.74
2017-07-06T03:38:35.878Z,72.11
2017-07-06T03:39:02.025Z,73.16
2017-07-06T03:39:28.150Z,73.07
2017-07-06T03:39:54.290Z,72.45
2017-07-06T03:40:20.423Z,73.16
2017-07-06T03:40:46.571Z,72.97
2017-07-06T03:41:12.709Z,72.78
2017-07-06T03:41:38.841Z,72.97
2017-07-06T03:42:04.982Z,73.16
2017-07-06T03:42:31.127Z,73.16
2017-07-06T03:42:57.255Z,73.07
2017-07-06T03:43:23.394Z,72.88
2017-07-06T03:43:49.544Z,72.59
2017-07-06T03:44:15.671Z,72.88
2017-07-06T03:44:41.806Z,72.78
2017-07-06T03:45:07.956Z,72.36
2017-07-06T03:45:34.115Z,73.16
2017-07-06T03:46:00.261Z,72.97
2017-07-06T03:46:26.386Z,72.74
2017-07-06T03:46:52.529Z,72.59
2017-07-06T03:47:18.672Z,72.59
2017-07-06T03:47:44.805Z,72.68
2017-07-06T03:48:10.941Z,72.3
2017-07-06T03:48:37.116Z,72.26
2017-07-06T03:49:03.246Z,72.49
2017-07-06T03:49:29.379Z,72.68
2017-07-06T03:49:55.526Z,72.65
2017-07-06T03:50:21.662Z,72.3
2017-07-06T03:50:47.796Z,72.2
2017-07-06T03:51:13.937Z,73.03
2017-07-06T03:51:40.071Z,73.07
2017-07-06T03:52:06.218Z,72.65
2017-07-06T03:52:32.381Z,73.13
2017-07-06T03:52:58.510Z,73.16
2017-07-06T03:53:24.660Z,72.97
2017-07-06T03:53:50.796Z,72.49
2017-07-06T03:54:16.928Z,72.97
2017-07-06T03:54:43.073Z,71.97
2017-07-06T03:55:09.217Z,73.07
2017-07-06T03:55:35.345Z,72.01
2017-07-06T03:56:01.490Z,72.97
2017-07-06T03:56:27.638Z,72.49
2017-07-06T03:56:53.771Z,72.74
2017-07-06T03:57:19.935Z,72.74
2017-07-06T03:57:46.063Z,72.11
2017-07-06T03:58:12.212Z,72.2
2017-07-06T03:58:38.360Z,72.07
2017-07-06T03:59:04.508Z,72.3
2017-07-06T03:59:30.651Z,72.94
2017-07-06T03:59:56.800Z,72.26
2017-07-06T04:00:22.926Z,72.39
2017-07-06T04:00:49.068Z,72.39
2017-07-06T04:01:15.213Z,72.49
2017-07-06T04:01:41.344Z,73.16
2017-07-06T04:02:07.478Z,72.49
2017-07-06T04:02:33.614Z,72.88
2017-07-06T04:02:59.755Z,72.39
2017-07-06T04:03:25.903Z,72.68
2017-07-06T04:03:52.029Z,72.3
2017-07-06T04:04:18.168Z,72.3
2017-07-06T04:04:44.315Z,72.11
2017-07-06T04:05:10.442Z,72.68
2017-07-06T04:05:36.578Z,72.78
2017-07-06T04:06:02.723Z,72.59
2017-07-06T04:06:28.861Z,72.49
2017-07-06T04:06:54.990Z,72.59
2017-07-06T04:07:21.142Z,72.3
2017-07-06T04:07:47.278Z,72.68
2017-07-06T04:08:13.406Z,72.59
2017-07-06T04:08:39.554Z,72.59
2017-07-06T04:09:05.692Z,72.88
2017-07-06T04:09:31.824Z,72.78
2017-07-06T04:09:57.965Z,72.49
2017-07-06T04:10:24.116Z,72.49
2017-07-06T04:10:50.240Z,72.39
2017-07-06T04:11:16.383Z,72.11
2017-07-06T04:11:42.581Z,72.3
2017-07-06T04:12:08.658Z,71.53
2017-07-06T04:12:34.800Z,71.91
2017-07-06T04:13:00.950Z,71.72
2017-07-06T04:13:27.087Z,71.91
2017-07-06T04:13:53.231Z,71.72
2017-07-06T04:14:19.363Z,72.01
2017-07-06T04:14:45.501Z,72.01
2017-07-06T04:15:11.649Z,72.01
2017-07-06T04:15:37.777Z,72.01
2017-07-06T04:16:03.913Z,71.91
2017-07-06T04:16:30.059Z,71.91
2017-07-06T04:16:56.195Z,71.81
2017-07-06T04:17:22.349Z,71.72
2017-07-06T04:17:48.500Z,71.81
2017-07-06T04:18:14.635Z,72.11
2017-07-06T04:18:40.766Z,72.01
2017-07-06T04:19:06.917Z,72.01
2017-07-06T04:19:33.051Z,71.91
2017-07-06T04:19:59.196Z,71.81
2017-07-06T04:20:25.329Z,71.91
2017-07-06T04:20:51.461Z,71.91
2017-07-06T04:21:17.609Z,72.01
2017-07-06T04:21:43.747Z,71.53
2017-07-06T04:22:09.878Z,71.72
2017-07-06T04:22:36.026Z,71.72
2017-07-06T04:23:02.164Z,71.91
2017-07-06T04:23:28.296Z,72.01
2017-07-06T04:23:54.437Z,71.81
2017-07-06T04:24:20.583Z,72.01
2017-07-06T04:24:46.718Z,72.01
2017-07-06T04:25:12.856Z,71.91
2017-07-06T04:25:38.989Z,72.11
2017-07-06T04:26:05.136Z,72.11
2017-07-06T04:26:31.273Z,71.76
2017-07-06T04:26:57.405Z,71.81
2017-07-06T04:27:23.550Z,71.72
2017-07-06T04:27:49.698Z,71.91
2017-07-06T04:28:15.832Z,71.72
2017-07-06T04:28:42.008Z,71.72
2017-07-06T04:29:08.153Z,71.81
2017-07-06T04:29:34.283Z,71.72
2017-07-06T04:30:00.422Z,72.11
2017-07-06T04:30:26.570Z,71.72
2017-07-06T04:30:52.704Z,72.59
2017-07-06T04:31:18.835Z,72.11
2017-07-06T04:31:44.990Z,72.39
2017-07-06T04:32:11.121Z,72.59
2017-07-06T04:32:37.251Z,72.49
2017-07-06T04:33:03.400Z,72.39
2017-07-06T04:33:29.542Z,72.39
2017-07-06T04:33:55.690Z,72.49
2017-07-06T04:34:21.832Z,72.2
2017-07-06T04:34:47.982Z,72.2
2017-07-06T04:35:14.108Z,72.2
2017-07-06T04:35:40.252Z,71.72
2017-07-06T04:36:06.382Z,72.11
2017-07-06T04:36:32.557Z,72.11
2017-07-06T04:36:58.695Z,72.78
2017-07-06T04:37:24.824Z,72.3
2017-07-06T04:37:50.964Z,72.11
2017-07-06T04:38:17.110Z,71.72
2017-07-06T04:38:43.239Z,72.11
2017-07-06T04:39:09.382Z,72.01
2017-07-06T04:39:35.531Z,72.01
2017-07-06T04:40:01.660Z,71.53
2017-07-06T04:40:27.796Z,72.01
2017-07-06T04:40:53.941Z,71.81
2017-07-06T04:41:20.078Z,72.11
2017-07-06T04:41:46.222Z,72.11
2017-07-06T04:42:12.352Z,71.81
2017-07-06T04:42:38.492Z,72.11
2017-07-06T04:43:04.639Z,72.3
2017-07-06T04:43:30.768Z,72.11
2017-07-06T04:43:56.905Z,72.49
2017-07-06T04:44:23.051Z,72.3
2017-07-06T04:44:49.188Z,72.49
2017-07-06T04:45:15.317Z,71.81
2017-07-06T04:45:41.471Z,71.81
2017-07-06T04:46:07.610Z,72.2
2017-07-06T04:46:33.739Z,72.01
2017-07-06T04:46:59.891Z,72.11
2017-07-06T04:47:26.024Z,72.05
2017-07-06T04:47:52.169Z,71.47
2017-07-06T04:48:18.328Z,70.98
2017-07-06T04:48:44.461Z,70.41
2017-07-06T04:49:10.614Z,69.96
2017-07-06T04:49:36.755Z,69.87
2017-07-06T04:50:02.883Z,69.48
2017-07-06T04:50:29.034Z,69.19
2017-07-06T04:50:55.174Z,68.55
2017-07-06T04:51:21.309Z,67.97
2017-07-06T04:51:47.449Z,67.52
2017-07-06T04:52:13.597Z,66.85
2017-07-06T04:52:39.728Z,66.94
2017-07-06T04:53:05.872Z,66.46
2017-07-06T04:53:32.019Z,65.63
2017-07-06T04:53:58.147Z,65.34
2017-07-06T04:54:24.287Z,64.47
2017-07-06T04:54:50.435Z,64.28
2017-07-06T04:55:16.568Z,64.69
2017-07-06T04:55:42.700Z,63.53
2017-07-06T04:56:08.850Z,63.15
2017-07-06T04:56:34.989Z,62.76
2017-07-06T04:57:01.117Z,63.08
2017-07-06T04:57:27.267Z,62.79
2017-07-06T04:57:53.407Z,62.21
2017-07-06T04:58:19.545Z,61.47
2017-07-06T04:58:45.678Z,60.99
2017-07-06T04:59:11.812Z,60.99
2017-07-06T04:59:37.962Z,60.21
2017-07-06T05:00:04.100Z,59.95
2017-07-06T05:00:30.233Z,60.14
2017-07-06T05:00:56.381Z,59.38
2017-07-06T05:01:22.522Z,59.18
2017-07-06T05:01:48.655Z,59.08
2017-07-06T05:02:14.803Z,58.82
2017-07-06T05:02:40.948Z,58.04
2017-07-06T05:03:07.082Z,58.63
2017-07-06T05:03:33.222Z,58.24
2017-07-06T05:03:59.360Z,58.04
2017-07-06T05:04:25.509Z,57.86
2017-07-06T05:04:51.650Z,57.5
2017-07-06T05:05:17.780Z,57.59
2017-07-06T05:05:43.926Z,57.11
2017-07-06T05:06:10.073Z,56.75
2017-07-06T05:06:36.204Z,56.46
2017-07-06T05:07:02.343Z,56.16
2017-07-06T05:07:28.486Z,55.78
2017-07-06T05:07:54.622Z,55.42
2017-07-06T05:08:20.785Z,55.42
2017-07-06T05:08:46.929Z,54.74
2017-07-06T05:09:13.062Z,54.55
2017-07-06T05:09:39.212Z,54.45
2017-07-06T05:10:05.341Z,54.35
2017-07-06T05:10:31.484Z,53.77
2017-07-06T05:10:57.631Z,54.09
2017-07-06T05:11:23.765Z,53.99
2017-07-06T05:11:49.902Z,53.99
2017-07-06T05:12:16.050Z,53.8
2017-07-06T05:12:42.205Z,54.26
2017-07-06T05:13:08.340Z,53.89
2017-07-06T05:13:34.487Z,53.7
2017-07-06T05:14:00.626Z,53.77
2017-07-06T05:14:26.761Z,53.87
2017-07-06T05:14:52.906Z,53.49
2017-07-06T05:15:19.042Z,53.77
2017-07-06T05:15:45.189Z,53.67
2017-07-06T05:16:11.323Z,53.67
2017-07-06T05:16:37.457Z,53.87
2017-07-06T05:17:03.633Z,54.55
2017-07-06T05:17:29.776Z,54.94
2017-07-06T05:17:55.901Z,54.45
2017-07-06T05:18:22.051Z,55
2017-07-06T05:18:48.192Z,54.94
2017-07-06T05:19:14.324Z,55
2017-07-06T05:19:40.468Z,55.1
2017-07-06T05:20:06.615Z,55.1
2017-07-06T05:20:32.748Z,55.49
2017-07-06T05:20:58.886Z,55.49
2017-07-06T05:21:25.022Z,55.49
2017-07-06T05:21:51.172Z,55.88
2017-07-06T05:22:17.333Z,56.07
2017-07-06T05:22:43.465Z,56.16
2017-07-06T05:23:09.609Z,56.04
2017-07-06T05:23:35.758Z,56.82
2017-07-06T05:24:01.888Z,56.52
2017-07-06T05:24:28.027Z,56.52
2017-07-06T05:24:54.176Z,56.24
2017-07-06T05:25:20.306Z,57.08
2017-07-06T05:25:46.447Z,57.08
2017-07-06T05:26:12.585Z,57.08
2017-07-06T05:26:38.731Z,57.37
2017-07-06T05:27:04.879Z,57.54
2017-07-06T05:27:31.009Z,58.34
2017-07-06T05:27:57.148Z,57.34
2017-07-06T05:28:23.297Z,58.4
2017-07-06T05:28:49.430Z,58.02
2017-07-06T05:29:15.568Z,58.6
2017-07-06T05:29:41.712Z,58.8
2017-07-06T05:30:07.844Z,58.8
2017-07-06T05:30:33.977Z,59.08
2017-07-06T05:31:00.126Z,59.28
2017-07-06T05:31:26.261Z,59.38
2017-07-06T05:31:52.428Z,58.95
2017-07-06T05:32:18.563Z,59.38
2017-07-06T05:32:44.699Z,59.44
2017-07-06T05:33:10.861Z,60.21
2017-07-06T05:33:36.986Z,59.83
2017-07-06T05:34:03.117Z,59.92
2017-07-06T05:34:29.268Z,59.73
2017-07-06T05:34:55.409Z,59.83
2017-07-06T05:35:21.541Z,60.02
2017-07-06T05:35:47.687Z,60.11
2017-07-06T05:36:13.831Z,60.5
2017-07-06T05:36:39.960Z,60.18
2017-07-06T05:37:06.115Z,60.86
2017-07-06T05:37:32.266Z,60.96
2017-07-06T05:37:58.392Z,60.38
2017-07-06T05:38:24.533Z,61.05